createdAt,value
2023-02-20T00:01:04.109Z,2.77
2023-02-20T00:03:31.674Z,3.50
2023-02-20T00:05:58.601Z,3.03
2023-02-20T00:08:25.724Z,3.50
2023-02-20T00:10:52.582Z,3.20
2023-02-20T00:13:19.440Z,3.30
2023-02-20T00:15:46.435Z,3.97
2023-02-20T00:18:13.457Z,3.83
2023-02-20T00:20:40.467Z,3.73
2023-02-20T00:23:07.397Z,4.20
2023-02-20T00:25:34.348Z,4.07
2023-02-20T00:28:01.749Z,3.83
2023-02-20T00:30:28.801Z,4.40
2023-02-20T00:32:57.094Z,3.83
2023-02-20T00:35:25.784Z,3.97
2023-02-20T00:37:53.702Z,4.63
2023-02-20T00:40:22.621Z,4.33
2023-02-20T00:42:49.640Z,4.63
2023-02-20T00:45:17.974Z,4.93
2023-02-20T00:47:44.988Z,5.07
2023-02-20T00:50:14.220Z,4.07
2023-02-20T00:52:41.250Z,4.53
2023-02-20T00:55:08.468Z,5.33
2023-02-20T00:57:35.449Z,4.67
2023-02-20T01:00:02.558Z,5.83
2023-02-20T01:02:29.512Z,4.90
2023-02-20T01:04:56.833Z,5.37
2023-02-20T01:07:23.879Z,5.33
2023-02-20T01:09:50.803Z,5.00
2023-02-20T01:12:20.007Z,4.53
2023-02-20T01:14:47.000Z,5.47
2023-02-20T01:17:14.959Z,5.07
2023-02-20T01:19:42.893Z,5.53
2023-02-20T01:22:09.976Z,5.40
2023-02-20T01:24:36.851Z,4.53
2023-02-20T01:27:04.120Z,5.40
2023-02-20T01:29:31.253Z,5.03
2023-02-20T01:31:59.301Z,4.37
2023-02-20T01:34:26.556Z,4.70
2023-02-20T01:36:56.423Z,4.63
2023-02-20T01:39:31.227Z,4.00
2023-02-20T01:42:02.459Z,4.37
2023-02-20T01:44:35.452Z,4.20
2023-02-20T01:47:07.727Z,3.83
2023-02-20T01:49:39.311Z,4.70
2023-02-20T01:52:06.365Z,4.83
2023-02-20T01:54:35.511Z,4.50
2023-02-20T01:57:08.017Z,3.73
2023-02-20T01:59:39.879Z,4.27
2023-02-20T02:02:07.363Z,4.33
2023-02-20T02:04:37.725Z,4.00
2023-02-20T02:07:05.214Z,3.57
2023-02-20T02:10:04.451Z,4.30
2023-02-20T02:12:32.052Z,3.93
2023-02-20T02:14:59.064Z,4.00
2023-02-20T02:17:38.184Z,4.20
2023-02-20T02:20:35.233Z,4.57
2023-02-20T02:23:20.568Z,4.53
2023-02-20T02:26:05.472Z,4.53
2023-02-20T02:28:51.497Z,4.07
2023-02-20T02:31:24.387Z,4.07
2023-02-20T02:34:28.686Z,4.07
2023-02-20T02:37:03.561Z,4.33
2023-02-20T02:39:35.908Z,4.30
2023-02-20T02:42:05.821Z,4.13
2023-02-20T02:44:50.866Z,3.57
2023-02-20T02:47:38.188Z,4.00
2023-02-20T02:50:17.044Z,4.23
2023-02-20T02:52:49.273Z,4.40
2023-02-20T02:55:26.369Z,4.33
2023-02-20T02:57:54.282Z,3.87
2023-02-20T03:00:34.364Z,4.47
2023-02-20T03:03:07.227Z,4.20
2023-02-20T03:05:46.581Z,3.73
2023-02-20T03:08:31.464Z,3.80
2023-02-20T03:11:03.930Z,3.57
2023-02-20T03:13:55.179Z,3.93
2023-02-20T03:16:29.968Z,4.37
2023-02-20T03:19:02.028Z,3.70
2023-02-20T03:21:32.856Z,3.90
2023-02-20T03:24:03.420Z,3.77
2023-02-20T03:26:34.699Z,4.17
2023-02-20T03:29:14.590Z,3.57
2023-02-20T03:31:50.371Z,3.97
2023-02-20T03:34:44.994Z,3.47
2023-02-20T03:37:37.033Z,3.70
2023-02-20T03:40:30.409Z,2.90
2023-02-20T03:43:44.951Z,4.13
2023-02-20T03:46:19.082Z,2.97
2023-02-20T03:48:55.398Z,2.67
2023-02-20T03:51:23.583Z,2.87
2023-02-20T03:54:00.459Z,3.47
2023-02-20T03:56:35.304Z,2.70
2023-02-20T03:59:12.871Z,3.03
2023-02-20T04:01:42.946Z,2.80
2023-02-20T04:04:14.412Z,2.70
2023-02-20T04:06:44.760Z,2.73
2023-02-20T04:09:17.275Z,2.87
2023-02-20T04:11:54.232Z,2.30
2023-02-20T04:14:24.679Z,2.90
2023-02-20T04:17:12.968Z,2.87
2023-02-20T04:19:41.000Z,3.03
2023-02-20T04:22:17.202Z,2.53
2023-02-20T04:24:50.687Z,3.20
2023-02-20T04:27:18.461Z,2.70
2023-02-20T04:29:51.021Z,3.27
2023-02-20T04:32:18.064Z,2.80
2023-02-20T04:34:45.134Z,2.77
2023-02-20T04:37:15.384Z,2.87
2023-02-20T04:39:43.282Z,2.90
2023-02-20T04:42:11.146Z,2.70
2023-02-20T04:44:43.300Z,2.53
2023-02-20T04:47:15.766Z,2.80
2023-02-20T04:49:43.575Z,2.90
2023-02-20T04:52:12.157Z,2.73
2023-02-20T04:54:39.974Z,2.37
2023-02-20T04:57:09.226Z,2.70
2023-02-20T04:59:36.361Z,2.80
2023-02-20T05:02:04.655Z,2.50
2023-02-20T05:04:32.059Z,2.47
2023-02-20T05:06:59.024Z,2.70
2023-02-20T05:09:26.590Z,2.23
2023-02-20T05:11:53.529Z,2.50
2023-02-20T05:14:21.737Z,2.30
2023-02-20T05:16:51.380Z,2.67
2023-02-20T05:19:18.824Z,2.37
2023-02-20T05:22:04.465Z,2.40
2023-02-20T05:24:32.532Z,2.63
2023-02-20T05:26:59.787Z,2.53
2023-02-20T05:29:26.830Z,2.63
2023-02-20T05:31:54.367Z,2.80
2023-02-20T05:34:22.727Z,2.30
2023-02-20T05:36:49.710Z,2.70
2023-02-20T05:39:16.826Z,2.37
2023-02-20T05:41:43.676Z,2.97
2023-02-20T05:44:10.875Z,2.30
2023-02-20T05:46:42.353Z,2.57
2023-02-20T05:49:10.649Z,2.57
2023-02-20T05:51:37.820Z,2.50
2023-02-20T05:54:05.401Z,2.50
2023-02-20T05:56:33.192Z,2.57
2023-02-20T05:59:00.626Z,2.60
2023-02-20T06:01:32.352Z,2.13
2023-02-20T06:04:01.708Z,2.27
2023-02-20T06:06:36.124Z,2.10
2023-02-20T06:09:04.999Z,2.50
2023-02-20T06:11:32.088Z,2.60
2023-02-20T06:13:59.094Z,2.60
2023-02-20T06:16:28.172Z,3.07
2023-02-20T06:18:56.188Z,2.80
2023-02-20T06:21:24.781Z,2.40
2023-02-20T06:23:53.436Z,3.13
2023-02-20T06:26:21.299Z,2.50
2023-02-20T06:28:50.698Z,2.80
2023-02-20T06:31:26.000Z,2.67
2023-02-20T06:33:53.751Z,2.07
2023-02-20T06:36:24.271Z,2.13
2023-02-20T06:38:51.751Z,2.50
2023-02-20T06:41:18.997Z,2.53
2023-02-20T06:43:46.059Z,2.70
2023-02-20T06:46:13.126Z,3.13
2023-02-20T06:48:49.132Z,2.40
2023-02-20T06:51:20.763Z,2.97
2023-02-20T06:53:48.165Z,3.27
2023-02-20T06:56:19.982Z,2.70
2023-02-20T06:58:49.759Z,2.00
2023-02-20T07:01:18.202Z,2.27
2023-02-20T07:03:48.965Z,2.70
2023-02-20T07:06:16.751Z,2.77
2023-02-20T07:08:43.672Z,3.00
2023-02-20T07:11:11.599Z,2.90
2023-02-20T07:13:39.329Z,2.07
2023-02-20T07:16:06.860Z,2.60
2023-02-20T07:18:33.764Z,2.50
2023-02-20T07:21:00.769Z,3.07
2023-02-20T07:23:27.670Z,2.53
2023-02-20T07:25:54.669Z,2.47
2023-02-20T07:28:21.749Z,2.33
2023-02-20T07:30:51.929Z,2.90
2023-02-20T07:33:19.366Z,4.10
2023-02-20T07:35:47.020Z,3.33
2023-02-20T07:38:15.033Z,3.10
2023-02-20T07:40:41.918Z,2.90
2023-02-20T07:43:09.244Z,2.83
2023-02-20T07:45:39.435Z,2.73
2023-02-20T07:48:06.468Z,2.50
2023-02-20T07:50:34.950Z,2.70
2023-02-20T07:53:02.143Z,2.80
2023-02-20T07:55:29.065Z,2.80
2023-02-20T07:57:58.370Z,2.87
2023-02-20T08:00:27.394Z,2.13
2023-02-20T08:02:54.475Z,2.90
2023-02-20T08:05:21.822Z,2.93
2023-02-20T08:07:50.197Z,2.87
2023-02-20T08:10:19.722Z,2.57
2023-02-20T08:12:48.287Z,2.70
2023-02-20T08:15:15.620Z,2.93
2023-02-20T08:17:47.566Z,2.63
2023-02-20T08:20:21.147Z,2.53
2023-02-20T08:22:49.796Z,2.73
2023-02-20T08:25:17.628Z,3.03
2023-02-20T08:27:47.136Z,3.37
2023-02-20T08:30:23.790Z,2.47
2023-02-20T08:32:52.298Z,2.67
2023-02-20T08:35:19.752Z,2.87
2023-02-20T08:37:46.893Z,2.77
2023-02-20T08:40:14.253Z,2.87
2023-02-20T08:42:41.213Z,3.17
2023-02-20T08:45:09.208Z,2.87
2023-02-20T08:47:36.495Z,3.10
2023-02-20T08:50:04.179Z,3.00
2023-02-20T08:52:31.510Z,2.60
2023-02-20T08:54:59.274Z,2.33
2023-02-20T08:57:26.123Z,2.67
2023-02-20T08:59:53.000Z,2.30
2023-02-20T09:02:26.329Z,2.70
2023-02-20T09:04:53.555Z,2.73
2023-02-20T09:07:20.460Z,3.17
2023-02-20T09:09:47.760Z,2.73
2023-02-20T09:12:14.968Z,2.63
2023-02-20T09:14:41.826Z,2.83
2023-02-20T09:17:09.611Z,2.70
2023-02-20T09:19:36.647Z,3.10
2023-02-20T09:22:03.617Z,2.53
2023-02-20T09:24:34.813Z,2.70
2023-02-20T09:27:03.225Z,3.07
2023-02-20T09:29:30.065Z,2.60
2023-02-20T09:31:57.786Z,2.27
2023-02-20T09:34:24.842Z,2.70
2023-02-20T09:36:51.788Z,2.73
2023-02-20T09:39:19.713Z,2.80
2023-02-20T09:42:04.805Z,2.50
2023-02-20T09:45:02.083Z,2.63
2023-02-20T09:47:51.028Z,2.50
2023-02-20T09:50:56.847Z,2.17
2023-02-20T09:53:30.822Z,2.90
2023-02-20T09:55:59.952Z,3.07
2023-02-20T09:58:35.534Z,3.20
2023-02-20T10:01:03.463Z,2.93
2023-02-20T10:03:54.883Z,3.00
2023-02-20T10:06:26.357Z,3.00
2023-02-20T10:08:55.670Z,3.20
2023-02-20T10:11:41.129Z,2.67
2023-02-20T10:14:44.406Z,3.20
2023-02-20T10:17:20.416Z,2.80
2023-02-20T10:20:09.986Z,3.20
2023-02-20T10:22:42.988Z,2.90
2023-02-20T10:25:27.180Z,2.60
2023-02-20T10:28:06.380Z,3.10
2023-02-20T10:31:05.122Z,2.93
2023-02-20T10:33:53.999Z,2.70
2023-02-20T10:36:47.140Z,2.53
2023-02-20T10:39:20.179Z,2.73
2023-02-20T10:41:55.332Z,2.83
2023-02-20T10:44:35.505Z,2.83
2023-02-20T10:47:16.530Z,2.80
2023-02-20T10:49:49.701Z,2.50
2023-02-20T10:52:33.853Z,2.90
2023-02-20T10:55:26.235Z,2.97
2023-02-20T10:58:12.334Z,2.57
2023-02-20T11:00:51.514Z,2.60
2023-02-20T11:03:27.571Z,3.33
2023-02-20T11:05:57.809Z,3.20
2023-02-20T11:08:24.726Z,2.40
2023-02-20T11:11:00.364Z,2.30
2023-02-20T11:13:27.560Z,3.07
2023-02-20T11:15:58.607Z,2.50
2023-02-20T11:18:35.258Z,2.73
2023-02-20T11:21:02.348Z,2.73
2023-02-20T11:23:41.551Z,2.97
2023-02-20T11:26:20.695Z,2.67
2023-02-20T11:29:18.226Z,3.00
2023-02-20T11:31:47.781Z,2.53
2023-02-20T11:34:22.182Z,2.80
2023-02-20T11:36:53.368Z,3.33
2023-02-20T11:39:30.014Z,2.63
2023-02-20T11:42:11.395Z,2.10
2023-02-20T11:44:38.774Z,2.80
2023-02-20T11:47:21.540Z,2.60
2023-02-20T11:49:49.277Z,3.03
2023-02-20T11:52:18.105Z,3.03
2023-02-20T11:54:46.289Z,2.37
2023-02-20T11:57:22.617Z,3.10
2023-02-20T12:00:11.190Z,2.93
2023-02-20T12:02:50.015Z,2.63
2023-02-20T12:05:17.868Z,2.47
2023-02-20T12:07:54.046Z,2.33
2023-02-20T12:10:45.253Z,2.93
2023-02-20T12:13:17.017Z,3.00
2023-02-20T12:15:51.574Z,2.80
2023-02-20T12:18:31.969Z,2.40
2023-02-20T12:21:10.759Z,3.17
2023-02-20T12:23:51.962Z,2.17
2023-02-20T12:26:33.842Z,2.97
2023-02-20T12:29:12.205Z,2.27
2023-02-20T12:31:57.773Z,2.27
2023-02-20T12:34:30.538Z,2.23
2023-02-20T12:37:33.133Z,2.40
2023-02-20T12:40:33.554Z,2.57
2023-02-20T12:43:00.600Z,2.67
2023-02-20T12:45:35.454Z,2.20
2023-02-20T12:48:21.393Z,2.20
2023-02-20T12:50:55.919Z,3.07
2023-02-20T12:53:53.604Z,2.53
2023-02-20T12:57:10.034Z,2.33
2023-02-20T12:59:46.151Z,2.30
2023-02-20T13:02:40.928Z,2.27
2023-02-20T13:05:14.356Z,1.93
2023-02-20T13:07:52.935Z,1.93
2023-02-20T13:10:47.413Z,2.30
2023-02-20T13:13:14.720Z,2.43
2023-02-20T13:16:19.225Z,2.23
2023-02-20T13:18:50.944Z,2.53
2023-02-20T13:21:24.155Z,2.40
2023-02-20T13:23:53.479Z,2.50
2023-02-20T13:26:35.788Z,2.30
2023-02-20T13:29:25.880Z,3.27
2023-02-20T13:31:58.350Z,2.30
2023-02-20T13:34:38.726Z,2.97
2023-02-20T13:37:34.323Z,2.70
2023-02-20T13:40:27.486Z,3.00
2023-02-20T13:43:12.904Z,2.60
2023-02-20T13:45:42.897Z,2.50
2023-02-20T13:48:28.956Z,2.30
2023-02-20T13:51:14.789Z,2.63
2023-02-20T13:53:41.630Z,2.13
2023-02-20T13:56:26.368Z,3.13
2023-02-20T13:58:58.754Z,2.43
2023-02-20T14:01:27.068Z,2.20
2023-02-20T14:04:04.980Z,2.30
2023-02-20T14:06:32.382Z,2.73
2023-02-20T14:09:17.183Z,2.23
2023-02-20T14:11:44.047Z,2.73
2023-02-20T14:14:34.100Z,2.43
2023-02-20T14:17:14.070Z,2.20
2023-02-20T14:19:44.956Z,2.80
2023-02-20T14:22:21.166Z,2.37
2023-02-20T14:25:01.346Z,2.60
2023-02-20T14:27:32.005Z,2.13
2023-02-20T14:30:12.134Z,2.33
2023-02-20T14:32:43.790Z,2.13
2023-02-20T14:35:24.784Z,2.80
2023-02-20T14:38:30.936Z,2.10
2023-02-20T14:40:59.644Z,2.70
2023-02-20T14:43:28.665Z,2.13
2023-02-20T14:46:04.989Z,2.27
2023-02-20T14:48:40.974Z,2.33
2023-02-20T14:51:37.292Z,2.57
2023-02-20T14:54:19.345Z,2.60
2023-02-20T14:56:48.645Z,2.87
2023-02-20T14:59:26.685Z,2.53
2023-02-20T15:02:21.329Z,2.20
2023-02-20T15:05:01.282Z,2.73
2023-02-20T15:07:29.477Z,1.97
2023-02-20T15:10:00.789Z,2.20
2023-02-20T15:12:29.423Z,2.17
2023-02-20T15:15:03.763Z,2.00
2023-02-20T15:17:33.061Z,3.27
2023-02-20T15:20:01.767Z,2.80
2023-02-20T15:22:28.761Z,2.50
2023-02-20T15:25:28.056Z,2.40
2023-02-20T15:28:19.064Z,2.47
2023-02-20T15:31:01.200Z,2.43
2023-02-20T15:33:30.739Z,2.57
2023-02-20T15:35:58.999Z,2.70
2023-02-20T15:38:33.076Z,2.37
2023-02-20T15:41:02.285Z,2.23
2023-02-20T15:43:43.262Z,2.47
2023-02-20T15:46:15.222Z,2.80
2023-02-20T15:48:42.609Z,2.43
2023-02-20T15:51:11.273Z,2.50
2023-02-20T15:53:38.740Z,2.23
2023-02-20T15:56:06.106Z,2.77
2023-02-20T15:58:43.661Z,2.53
2023-02-20T16:01:11.852Z,2.40
2023-02-20T16:03:51.149Z,2.20
2023-02-20T16:06:20.604Z,2.27
2023-02-20T16:08:47.726Z,2.17
2023-02-20T16:11:15.104Z,2.70
2023-02-20T16:13:45.704Z,2.80
2023-02-20T16:16:24.202Z,2.60
2023-02-20T16:18:54.819Z,2.37
2023-02-20T16:21:23.109Z,2.50
2023-02-20T16:23:50.462Z,2.50
2023-02-20T16:26:19.994Z,2.17
2023-02-20T16:29:12.958Z,2.50
2023-02-20T16:31:54.091Z,2.33
2023-02-20T16:34:26.938Z,2.80
2023-02-20T16:36:54.314Z,2.80
2023-02-20T16:39:26.848Z,3.30
2023-02-20T16:41:55.702Z,3.23
2023-02-20T16:44:42.002Z,2.90
2023-02-20T16:47:20.500Z,3.27
2023-02-20T16:49:51.375Z,2.73
2023-02-20T16:52:26.997Z,3.10
2023-02-20T16:54:55.787Z,2.90
2023-02-20T16:57:24.073Z,2.77
2023-02-20T16:59:55.504Z,2.60
2023-02-20T17:02:26.909Z,3.03
2023-02-20T17:04:54.271Z,2.30
2023-02-20T17:07:21.256Z,2.57
2023-02-20T17:09:48.309Z,2.67
2023-02-20T17:12:18.955Z,2.03
2023-02-20T17:14:46.631Z,2.37
2023-02-20T17:17:15.095Z,2.60
2023-02-20T17:19:43.456Z,2.73
2023-02-20T17:22:12.581Z,2.43
2023-02-20T17:24:43.297Z,2.80
2023-02-20T17:27:12.195Z,2.87
2023-02-20T17:29:41.732Z,3.20
2023-02-20T17:32:08.794Z,3.07
2023-02-20T17:34:35.826Z,3.53
2023-02-20T17:37:02.764Z,3.60
2023-02-20T17:39:29.834Z,3.20
2023-02-20T17:41:57.672Z,3.70
2023-02-20T17:44:27.059Z,2.93
2023-02-20T17:46:56.429Z,3.37
2023-02-20T17:49:24.742Z,2.80
2023-02-20T17:51:55.486Z,3.10
2023-02-20T17:54:25.251Z,2.90
2023-02-20T17:56:53.060Z,2.80
2023-02-20T17:59:20.579Z,2.60
2023-02-20T18:01:48.029Z,2.53
2023-02-20T18:04:15.396Z,2.57
2023-02-20T18:06:42.540Z,2.40
2023-02-20T18:09:13.177Z,2.80
2023-02-20T18:11:40.183Z,2.70
2023-02-20T18:14:07.148Z,2.40
2023-02-20T18:16:34.515Z,2.43
2023-02-20T18:19:02.408Z,2.20
2023-02-20T18:21:31.643Z,3.10
2023-02-20T18:23:59.265Z,2.40
2023-02-20T18:26:26.324Z,2.63
2023-02-20T18:28:53.350Z,2.70
2023-02-20T18:31:21.352Z,2.50
2023-02-20T18:33:48.289Z,3.03
2023-02-20T18:36:15.278Z,2.80
2023-02-20T18:38:42.356Z,2.67
2023-02-20T18:41:12.169Z,2.37
2023-02-20T18:43:45.018Z,2.50
2023-02-20T18:46:13.418Z,2.37
2023-02-20T18:48:41.438Z,2.87
2023-02-20T18:51:09.916Z,2.20
2023-02-20T18:53:36.955Z,2.23
2023-02-20T18:56:04.098Z,2.50
2023-02-20T18:58:31.662Z,2.50
2023-02-20T19:01:00.789Z,2.30
2023-02-20T19:03:27.890Z,3.03
2023-02-20T19:05:54.869Z,2.20
2023-02-20T19:08:23.262Z,2.50
2023-02-20T19:10:50.272Z,2.47
2023-02-20T19:13:17.304Z,2.20
2023-02-20T19:15:44.334Z,2.27
2023-02-20T19:18:11.231Z,2.70
2023-02-20T19:20:38.333Z,2.50
2023-02-20T19:23:05.296Z,2.10
2023-02-20T19:25:32.284Z,2.50
2023-02-20T19:27:59.434Z,2.43
2023-02-20T19:30:26.418Z,2.40
2023-02-20T19:32:53.432Z,3.00
2023-02-20T19:35:20.788Z,2.37
2023-02-20T19:37:47.752Z,2.27
2023-02-20T19:40:14.576Z,2.30
2023-02-20T19:42:41.847Z,2.20
2023-02-20T19:45:09.135Z,2.20
2023-02-20T19:47:36.087Z,2.90
2023-02-20T19:50:04.891Z,2.27
2023-02-20T19:52:32.197Z,2.77
2023-02-20T19:54:59.099Z,2.70
2023-02-20T19:57:26.184Z,2.40
2023-02-20T19:59:53.235Z,2.57
2023-02-20T20:02:25.087Z,2.27
2023-02-20T20:04:52.709Z,2.53
2023-02-20T20:07:19.641Z,2.20
2023-02-20T20:09:46.614Z,2.77
2023-02-20T20:12:32.271Z,2.70
2023-02-20T20:14:59.236Z,3.03
2023-02-20T20:17:26.156Z,2.43
2023-02-20T20:20:00.859Z,3.03
2023-02-20T20:22:30.214Z,2.80
2023-02-20T20:24:57.556Z,2.60
2023-02-20T20:27:24.583Z,2.70
2023-02-20T20:29:51.786Z,2.57
2023-02-20T20:32:21.197Z,2.70
2023-02-20T20:34:52.380Z,3.00
2023-02-20T20:37:20.688Z,2.80
2023-02-20T20:39:47.583Z,2.90
2023-02-20T20:42:15.952Z,2.97
2023-02-20T20:44:42.917Z,2.43
2023-02-20T20:47:10.140Z,2.57
2023-02-20T20:49:37.724Z,2.60
2023-02-20T20:52:04.749Z,3.30
2023-02-20T20:54:32.077Z,2.50
2023-02-20T20:56:59.113Z,2.80
2023-02-20T20:59:26.097Z,2.90
2023-02-20T21:01:53.104Z,2.87
2023-02-20T21:04:20.125Z,3.00
2023-02-20T21:06:47.283Z,2.80
2023-02-20T21:09:14.314Z,2.40
2023-02-20T21:11:41.618Z,3.00
2023-02-20T21:14:08.612Z,3.10
2023-02-20T21:16:35.611Z,3.17
2023-02-20T21:19:02.877Z,2.97
2023-02-20T21:21:31.748Z,3.00
2023-02-20T21:23:58.883Z,3.37
2023-02-20T21:26:26.057Z,2.97
2023-02-20T21:28:55.227Z,2.97
2023-02-20T21:31:22.601Z,3.00
2023-02-20T21:33:54.245Z,3.03
2023-02-20T21:36:21.300Z,2.50
2023-02-20T21:38:48.174Z,2.90
2023-02-20T21:41:39.342Z,3.17
2023-02-20T21:44:25.003Z,2.87
2023-02-20T21:46:54.436Z,2.70
2023-02-20T21:49:22.061Z,2.40
2023-02-20T21:51:48.916Z,2.70
2023-02-20T21:54:17.358Z,2.60
2023-02-20T21:56:44.672Z,2.50
2023-02-20T21:59:11.475Z,2.83
2023-02-20T22:01:39.717Z,2.30
2023-02-20T22:04:09.129Z,2.40
2023-02-20T22:06:36.329Z,2.07
2023-02-20T22:09:22.797Z,1.93
2023-02-20T22:12:08.298Z,1.63
2023-02-20T22:14:54.892Z,2.50
2023-02-20T22:17:40.269Z,2.40
2023-02-20T22:20:26.383Z,2.03
2023-02-20T22:23:11.874Z,2.50
2023-02-20T22:25:57.265Z,2.10
2023-02-20T22:28:42.743Z,1.93
2023-02-20T22:31:28.321Z,2.20
2023-02-20T22:34:13.879Z,1.63
2023-02-20T22:36:59.472Z,2.07
2023-02-20T22:39:45.221Z,2.60
2023-02-20T22:42:35.342Z,1.70
2023-02-20T22:45:21.837Z,1.60
2023-02-20T22:48:07.959Z,1.63
2023-02-20T22:50:53.596Z,1.87
2023-02-20T22:53:39.176Z,2.03
2023-02-20T22:56:25.056Z,1.87
2023-02-20T22:59:10.861Z,2.03
2023-02-20T23:01:56.579Z,2.00
2023-02-20T23:04:42.293Z,2.10
2023-02-20T23:07:27.800Z,2.27
2023-02-20T23:10:13.659Z,2.23
2023-02-20T23:13:00.488Z,2.30
2023-02-20T23:15:46.300Z,2.00
2023-02-20T23:18:32.296Z,1.70
2023-02-20T23:21:17.858Z,2.33
2023-02-20T23:24:03.474Z,2.17
2023-02-20T23:26:48.962Z,2.13
2023-02-20T23:29:34.939Z,2.13
2023-02-20T23:32:20.953Z,1.93
2023-02-20T23:35:06.616Z,2.17
2023-02-20T23:37:52.004Z,1.70
2023-02-20T23:40:38.249Z,1.80
2023-02-20T23:43:24.907Z,1.97
2023-02-20T23:46:10.592Z,1.80
2023-02-20T23:48:56.584Z,1.90
2023-02-20T23:51:42.232Z,1.73
2023-02-20T23:54:27.789Z,2.10
2023-02-20T23:57:13.337Z,1.90
2023-02-20T23:59:58.888Z,2.27
